createdAt,value
2018-12-11T00:01:14.528Z,1.40
2018-12-11T00:03:42.919Z,1.50
2018-12-11T00:06:11.387Z,1.50
2018-12-11T00:08:39.810Z,1.50
2018-12-11T00:11:08.271Z,1.50
2018-12-11T00:13:36.677Z,1.60
2018-12-11T00:16:05.087Z,1.60
2018-12-11T00:18:33.485Z,1.60
2018-12-11T00:21:01.911Z,1.50
2018-12-11T00:23:30.338Z,1.60
2018-12-11T00:25:58.755Z,1.50
2018-12-11T00:28:27.159Z,1.50
2018-12-11T00:30:55.634Z,1.60
2018-12-11T00:33:24.088Z,1.60
2018-12-11T00:35:52.692Z,1.60
2018-12-11T00:38:21.110Z,1.60
2018-12-11T00:40:49.494Z,1.50
2018-12-11T00:43:17.900Z,1.50
2018-12-11T00:45:46.308Z,1.50
2018-12-11T00:48:14.735Z,1.40
2018-12-11T00:50:43.125Z,1.30
2018-12-11T00:53:11.520Z,1.40
2018-12-11T00:55:39.930Z,1.40
2018-12-11T00:58:08.340Z,1.40
2018-12-11T01:00:36.721Z,1.40
2018-12-11T01:03:05.143Z,1.40
2018-12-11T01:05:33.665Z,1.40
2018-12-11T01:08:02.092Z,1.50
2018-12-11T01:10:30.498Z,1.30
2018-12-11T01:12:58.934Z,1.10
2018-12-11T01:15:27.332Z,1.20
2018-12-11T01:17:55.720Z,1.40
2018-12-11T01:20:24.197Z,1.50
2018-12-11T01:22:52.605Z,1.50
2018-12-11T01:25:21.005Z,1.30
2018-12-11T01:27:49.406Z,1.20
2018-12-11T01:30:17.801Z,1.30
2018-12-11T01:32:46.209Z,1.50
2018-12-11T01:35:14.622Z,1.40
2018-12-11T01:37:43.035Z,1.40
2018-12-11T01:40:11.452Z,1.50
2018-12-11T01:42:39.849Z,1.40
2018-12-11T01:45:08.377Z,1.40
2018-12-11T01:47:36.796Z,1.40
2018-12-11T01:50:05.332Z,1.40
2018-12-11T01:52:33.737Z,1.20
2018-12-11T01:55:02.180Z,1.30
2018-12-11T01:57:30.571Z,1.30
2018-12-11T01:59:58.975Z,1.50
2018-12-11T02:02:27.373Z,1.40
2018-12-11T02:04:55.767Z,1.40
2018-12-11T02:07:24.169Z,1.30
2018-12-11T02:09:52.573Z,1.20
2018-12-11T02:12:20.965Z,1.30
2018-12-11T02:14:49.370Z,1.30
2018-12-11T02:17:17.785Z,1.40
2018-12-11T02:19:46.188Z,1.30
2018-12-11T02:22:14.588Z,1.40
2018-12-11T02:24:43.003Z,1.40
2018-12-11T02:27:11.417Z,1.40
2018-12-11T02:29:39.839Z,1.50
2018-12-11T02:32:08.236Z,1.40
2018-12-11T02:34:36.623Z,1.30
2018-12-11T02:37:05.013Z,1.40
2018-12-11T02:39:33.398Z,1.40
2018-12-11T02:42:01.826Z,1.40
2018-12-11T02:44:30.214Z,1.40
2018-12-11T02:46:58.633Z,1.40
2018-12-11T02:49:27.037Z,1.40
2018-12-11T02:51:55.452Z,1.40
2018-12-11T02:54:24.104Z,1.50
2018-12-11T02:56:52.511Z,1.30
2018-12-11T02:59:20.942Z,1.40
2018-12-11T03:01:49.342Z,1.50
2018-12-11T03:04:17.728Z,1.40
2018-12-11T03:06:46.159Z,1.40
2018-12-11T03:09:14.533Z,1.30
2018-12-11T03:11:42.947Z,1.40
2018-12-11T03:14:11.375Z,1.30
2018-12-11T03:16:40.508Z,1.30
2018-12-11T03:19:08.973Z,1.20
2018-12-11T03:21:37.376Z,1.30
2018-12-11T03:24:05.784Z,1.40
2018-12-11T03:26:34.214Z,1.30
2018-12-11T03:29:02.589Z,1.40
2018-12-11T03:31:31.013Z,1.50
2018-12-11T03:33:59.411Z,1.50
2018-12-11T03:36:27.808Z,1.50
2018-12-11T03:38:56.222Z,1.50
2018-12-11T03:41:24.607Z,1.50
2018-12-11T03:43:52.990Z,1.50
2018-12-11T03:46:21.531Z,1.50
2018-12-11T03:48:49.937Z,1.40
2018-12-11T03:51:18.343Z,1.40
2018-12-11T03:53:46.745Z,1.40
2018-12-11T03:56:15.149Z,1.40
2018-12-11T03:58:43.542Z,1.30
2018-12-11T04:01:11.964Z,1.30
2018-12-11T04:03:40.360Z,1.30
2018-12-11T04:06:08.876Z,1.40
2018-12-11T04:08:37.324Z,1.40
2018-12-11T04:11:05.710Z,1.50
2018-12-11T04:13:34.108Z,1.40
2018-12-11T04:16:02.522Z,1.50
2018-12-11T04:18:30.962Z,1.50
2018-12-11T04:20:59.365Z,1.50
2018-12-11T04:23:27.760Z,1.00
2018-12-11T04:25:56.163Z,1.20
2018-12-11T04:28:24.551Z,1.20
2018-12-11T04:30:52.959Z,1.30
2018-12-11T04:33:21.396Z,1.30
2018-12-11T04:35:50.065Z,1.30
2018-12-11T04:38:18.484Z,1.40
2018-12-11T04:40:46.874Z,1.40
2018-12-11T04:43:15.324Z,1.40
2018-12-11T04:45:43.719Z,1.40
2018-12-11T04:48:12.098Z,1.40
2018-12-11T04:50:40.507Z,1.40
2018-12-11T04:53:08.908Z,1.40
2018-12-11T04:55:37.326Z,1.30
2018-12-11T04:58:05.735Z,1.30
2018-12-11T05:00:34.151Z,1.30
2018-12-11T05:03:02.563Z,1.20
2018-12-11T05:05:30.945Z,1.20
2018-12-11T05:07:59.360Z,1.30
2018-12-11T05:10:27.757Z,1.20
2018-12-11T05:12:56.169Z,1.30
2018-12-11T05:15:24.568Z,1.40
2018-12-11T05:17:52.945Z,1.40
2018-12-11T05:20:21.369Z,1.40
2018-12-11T05:22:49.745Z,1.40
2018-12-11T05:25:18.159Z,1.40
2018-12-11T05:27:46.555Z,1.30
2018-12-11T05:30:15.028Z,1.30
2018-12-11T05:32:43.473Z,1.20
2018-12-11T05:35:11.853Z,1.30
2018-12-11T05:37:40.238Z,1.20
2018-12-11T05:40:08.711Z,1.30
2018-12-11T05:42:37.099Z,1.30
2018-12-11T05:45:05.893Z,1.30
2018-12-11T05:47:34.289Z,1.20
2018-12-11T05:50:02.698Z,1.30
2018-12-11T05:52:31.111Z,1.30
2018-12-11T05:54:59.526Z,1.30
2018-12-11T05:57:27.938Z,1.30
2018-12-11T05:59:56.329Z,1.40
2018-12-11T06:02:24.730Z,1.40
2018-12-11T06:04:53.145Z,1.40
2018-12-11T06:07:21.567Z,1.30
2018-12-11T06:09:49.960Z,1.20
2018-12-11T06:12:18.447Z,1.20
2018-12-11T06:14:46.864Z,1.20
2018-12-11T06:17:15.335Z,1.30
2018-12-11T06:19:43.776Z,1.20
2018-12-11T06:22:12.411Z,1.20
2018-12-11T06:24:40.852Z,1.30
2018-12-11T06:27:09.240Z,1.30
2018-12-11T06:29:37.628Z,1.30
2018-12-11T06:32:06.049Z,1.40
2018-12-11T06:34:34.449Z,1.40
2018-12-11T06:37:02.855Z,1.40
2018-12-11T06:39:31.267Z,1.40
2018-12-11T06:41:59.682Z,1.40
2018-12-11T06:44:28.259Z,1.40
2018-12-11T06:46:56.667Z,1.50
2018-12-11T06:49:25.091Z,1.50
2018-12-11T06:51:53.517Z,1.60
2018-12-11T06:54:21.923Z,1.60
2018-12-11T06:56:50.333Z,1.50
2018-12-11T06:59:18.749Z,1.60
2018-12-11T07:01:47.180Z,1.50
2018-12-11T07:04:15.588Z,1.60
2018-12-11T07:06:44.040Z,1.60
2018-12-11T07:09:12.419Z,1.60
2018-12-11T07:11:40.820Z,1.60
2018-12-11T07:14:09.318Z,1.60
2018-12-11T07:16:37.920Z,1.60
2018-12-11T07:19:06.313Z,1.60
2018-12-11T07:21:34.717Z,1.60
2018-12-11T07:24:03.111Z,1.60
2018-12-11T07:26:31.537Z,1.60
2018-12-11T07:28:59.951Z,1.60
2018-12-11T07:31:28.342Z,1.60
2018-12-11T07:33:56.768Z,1.60
2018-12-11T07:36:25.246Z,1.70
2018-12-11T07:38:53.734Z,1.70
2018-12-11T07:41:22.145Z,1.70
2018-12-11T07:43:50.573Z,1.60
2018-12-11T07:46:18.980Z,1.60
2018-12-11T07:48:47.388Z,1.50
2018-12-11T07:51:15.779Z,1.50
2018-12-11T07:53:44.161Z,1.50
2018-12-11T07:56:12.576Z,1.50
2018-12-11T07:58:41.005Z,1.60
2018-12-11T08:01:09.392Z,1.60
2018-12-11T08:03:37.815Z,1.50
2018-12-11T08:06:06.252Z,1.60
2018-12-11T08:08:34.886Z,1.50
2018-12-11T08:11:03.283Z,1.50
2018-12-11T08:13:31.656Z,1.50
2018-12-11T08:16:00.082Z,1.60
2018-12-11T08:18:28.479Z,1.50
2018-12-11T08:20:56.896Z,1.50
2018-12-11T08:23:25.484Z,1.60
2018-12-11T08:25:54.053Z,1.60
2018-12-11T08:28:22.456Z,1.60
2018-12-11T08:30:50.850Z,1.70
2018-12-11T08:33:19.258Z,1.60
2018-12-11T08:35:47.722Z,1.60
2018-12-11T08:38:16.158Z,1.60
2018-12-11T08:40:44.558Z,1.50
2018-12-11T08:43:12.952Z,1.60
2018-12-11T08:45:41.366Z,1.60
2018-12-11T08:48:09.760Z,1.60
2018-12-11T08:50:38.195Z,1.50
2018-12-11T08:53:06.613Z,1.50
2018-12-11T08:55:35.007Z,1.60
2018-12-11T08:58:03.421Z,1.60
2018-12-11T09:00:31.829Z,1.60
2018-12-11T09:03:00.275Z,1.60
2018-12-11T09:05:28.686Z,1.50
2018-12-11T09:07:57.085Z,1.60
2018-12-11T09:10:25.512Z,1.60
2018-12-11T09:12:53.902Z,1.50
2018-12-11T09:15:22.296Z,1.50
2018-12-11T09:17:50.724Z,1.60
2018-12-11T09:20:19.124Z,1.60
2018-12-11T09:22:47.521Z,1.60
2018-12-11T09:25:15.955Z,1.60
2018-12-11T09:27:44.358Z,1.60
2018-12-11T09:30:12.758Z,1.60
2018-12-11T09:32:41.173Z,1.50
2018-12-11T09:35:09.575Z,1.60
2018-12-11T09:37:38.001Z,1.60
2018-12-11T09:40:06.541Z,1.60
2018-12-11T09:42:34.935Z,1.60
2018-12-11T09:45:03.775Z,1.50
2018-12-11T09:47:32.174Z,1.60
2018-12-11T09:50:00.588Z,1.50
2018-12-11T09:52:29.028Z,1.60
2018-12-11T09:54:57.458Z,1.50
2018-12-11T09:57:25.850Z,1.60
2018-12-11T09:59:54.266Z,1.60
2018-12-11T10:02:22.699Z,1.60
2018-12-11T10:04:51.105Z,1.60
2018-12-11T10:07:19.491Z,1.60
2018-12-11T10:09:47.896Z,1.60
2018-12-11T10:12:16.296Z,1.50
2018-12-11T10:14:44.715Z,1.50
2018-12-11T10:17:13.145Z,1.60
2018-12-11T10:19:41.530Z,1.60
2018-12-11T10:22:09.961Z,1.60
2018-12-11T10:24:38.378Z,1.70
2018-12-11T10:27:06.800Z,1.60
2018-12-11T10:29:35.194Z,1.60
2018-12-11T10:32:03.581Z,1.70
2018-12-11T10:34:31.995Z,1.60
2018-12-11T10:37:00.396Z,1.60
2018-12-11T10:39:28.825Z,1.60
2018-12-11T10:41:57.227Z,1.60
2018-12-11T10:44:25.629Z,1.60
2018-12-11T10:46:54.049Z,1.70
2018-12-11T10:49:22.470Z,1.50
2018-12-11T10:51:50.858Z,1.60
2018-12-11T10:54:19.258Z,1.50
2018-12-11T10:56:47.654Z,1.60
2018-12-11T10:59:16.064Z,1.60
2018-12-11T11:01:46.289Z,1.60
2018-12-11T11:04:15.025Z,1.60
2018-12-11T11:06:43.449Z,1.60
2018-12-11T11:09:11.830Z,1.60
2018-12-11T11:11:40.209Z,1.60
2018-12-11T11:14:08.614Z,1.60
2018-12-11T11:16:37.005Z,1.50
2018-12-11T11:19:05.426Z,1.50
2018-12-11T11:21:33.829Z,1.50
2018-12-11T11:24:02.217Z,1.50
2018-12-11T11:26:30.625Z,1.60
2018-12-11T11:28:59.028Z,1.60
2018-12-11T11:31:27.421Z,1.60
2018-12-11T11:33:57.085Z,1.60
2018-12-11T11:36:26.237Z,1.60
2018-12-11T11:38:54.628Z,1.60
2018-12-11T11:41:23.018Z,1.60
2018-12-11T11:43:51.401Z,1.70
2018-12-11T11:46:19.823Z,1.60
2018-12-11T11:48:48.223Z,1.60
2018-12-11T11:51:16.617Z,1.60
2018-12-11T11:53:45.011Z,1.50
2018-12-11T11:56:13.461Z,1.60
2018-12-11T11:58:41.912Z,1.50
2018-12-11T12:01:10.318Z,1.40
2018-12-11T12:03:38.725Z,1.50
2018-12-11T12:06:07.170Z,1.50
2018-12-11T12:08:35.565Z,1.60
2018-12-11T12:11:04.060Z,1.70
2018-12-11T12:13:32.478Z,1.60
2018-12-11T12:16:00.861Z,1.70
2018-12-11T12:18:29.271Z,1.60
2018-12-11T12:20:57.658Z,1.60
2018-12-11T12:23:26.065Z,1.70
2018-12-11T12:25:54.471Z,1.60
2018-12-11T12:28:22.861Z,1.70
2018-12-11T12:30:51.834Z,1.60
2018-12-11T12:33:20.228Z,1.60
2018-12-11T12:35:48.700Z,1.70
2018-12-11T12:38:17.085Z,1.70
2018-12-11T12:40:45.476Z,1.60
2018-12-11T12:43:13.881Z,1.60
2018-12-11T12:45:42.275Z,1.50
2018-12-11T12:48:10.673Z,1.60
2018-12-11T12:50:39.073Z,1.60
2018-12-11T12:53:07.472Z,1.60
2018-12-11T12:55:35.861Z,1.60
2018-12-11T12:58:04.266Z,1.60
2018-12-11T13:00:32.723Z,1.70
2018-12-11T13:03:01.109Z,1.70
2018-12-11T13:05:29.553Z,1.70
2018-12-11T13:07:57.935Z,1.70
2018-12-11T13:10:26.330Z,1.70
2018-12-11T13:12:54.901Z,1.60
2018-12-11T13:15:23.297Z,1.70
2018-12-11T13:17:51.705Z,1.70
2018-12-11T13:20:20.102Z,1.80
2018-12-11T13:22:48.514Z,1.70
2018-12-11T13:25:16.923Z,1.80
2018-12-11T13:27:45.314Z,1.80
2018-12-11T13:30:13.711Z,1.90
2018-12-11T13:32:42.130Z,1.80
2018-12-11T13:35:10.526Z,1.80
2018-12-11T13:37:48.441Z,1.80
2018-12-11T13:54:34.199Z,1.70
2018-12-11T13:57:02.605Z,1.70
2018-12-11T13:59:31.015Z,1.70
2018-12-11T14:01:59.437Z,1.70
2018-12-11T14:04:27.816Z,1.70
2018-12-11T14:06:56.212Z,1.70
2018-12-11T14:09:30.174Z,1.60
2018-12-11T14:11:58.628Z,1.70
2018-12-11T14:14:27.042Z,1.70
2018-12-11T14:16:55.467Z,1.70
2018-12-11T14:19:23.853Z,1.80
2018-12-11T14:21:52.305Z,1.80
2018-12-11T14:24:20.694Z,1.70
2018-12-11T14:26:49.144Z,1.80
2018-12-11T14:29:17.858Z,1.80
2018-12-11T14:55:13.519Z,1.80
2018-12-11T15:00:10.147Z,1.80
2018-12-11T15:05:07.199Z,1.80
2018-12-11T15:10:10.956Z,1.80
2018-12-11T15:12:39.448Z,1.70
2018-12-11T15:17:36.297Z,1.80
2018-12-11T15:20:05.804Z,1.80
2018-12-11T15:37:22.709Z,1.80
2018-12-11T15:39:51.113Z,1.60
2018-12-11T15:44:47.591Z,1.80
2018-12-11T15:47:15.988Z,1.70
2018-12-11T16:56:34.483Z,1.70
2018-12-11T16:59:02.908Z,1.70
2018-12-11T17:01:31.297Z,1.70
2018-12-11T17:53:21.869Z,1.60
2018-12-11T17:55:50.279Z,1.60
2018-12-11T18:42:44.776Z,1.60
2018-12-11T18:45:13.284Z,1.60
2018-12-11T19:14:51.760Z,1.50
2018-12-11T20:01:45.977Z,1.80
2018-12-11T20:19:02.995Z,1.60
2018-12-11T20:26:29.576Z,1.60
2018-12-11T21:08:27.466Z,1.50
2018-12-11T21:10:55.870Z,1.60
2018-12-11T21:45:29.315Z,1.60
2018-12-11T21:52:54.158Z,1.40
2018-12-11T21:55:22.605Z,1.40
2018-12-11T22:25:00.719Z,1.30
2018-12-11T22:27:29.096Z,1.40
2018-12-11T22:57:06.642Z,1.40
2018-12-11T23:11:55.542Z,1.40
2018-12-11T23:14:23.978Z,1.30
2018-12-11T23:44:02.535Z,1.30
